sensor_id;sensor_type;location;lat;lon;timestamp;P1;durP1;ratioP1;P2;durP2;ratioP2
75470;SDS011;64051;46.320;48.028;2023-04-07T00:01:37;14.10;;;3.80;;
75470;SDS011;64051;46.320;48.028;2023-04-07T00:04:02;10.07;;;3.83;;
75470;SDS011;64051;46.320;48.028;2023-04-07T00:06:31;10.35;;;3.80;;
75470;SDS011;64051;46.320;48.028;2023-04-07T00:08:57;11.27;;;4.28;;
75470;SDS011;64051;46.320;48.028;2023-04-07T00:11:23;7.75;;;3.65;;
75470;SDS011;64051;46.320;48.028;2023-04-07T00:13:49;9.82;;;3.58;;
75470;SDS011;64051;46.320;48.028;2023-04-07T00:16:15;14.13;;;4.00;;
75470;SDS011;64051;46.320;48.028;2023-04-07T00:18:44;10.30;;;3.38;;
75470;SDS011;64051;46.320;48.028;2023-04-07T00:21:10;11.77;;;3.80;;
75470;SDS011;64051;46.320;48.028;2023-04-07T00:23:36;8.85;;;3.30;;
75470;SDS011;64051;46.320;48.028;2023-04-07T00:26:02;9.02;;;3.40;;
75470;SDS011;64051;46.320;48.028;2023-04-07T00:28:28;6.57;;;2.93;;
75470;SDS011;64051;46.320;48.028;2023-04-07T00:31:00;16.65;;;3.63;;
75470;SDS011;64051;46.320;48.028;2023-04-07T00:33:26;13.40;;;3.85;;
75470;SDS011;64051;46.320;48.028;2023-04-07T00:35:55;14.20;;;3.53;;
75470;SDS011;64051;46.320;48.028;2023-04-07T00:38:22;15.40;;;4.15;;
75470;SDS011;64051;46.320;48.028;2023-04-07T00:40:48;11.55;;;4.20;;
75470;SDS011;64051;46.320;48.028;2023-04-07T00:43:15;14.13;;;4.20;;
75470;SDS011;64051;46.320;48.028;2023-04-07T00:45:41;15.07;;;3.80;;
75470;SDS011;64051;46.320;48.028;2023-04-07T00:48:07;13.63;;;4.57;;
75470;SDS011;64051;46.320;48.028;2023-04-07T00:50:34;18.38;;;5.20;;
75470;SDS011;64051;46.320;48.028;2023-04-07T00:53:00;12.48;;;5.00;;
75470;SDS011;64051;46.320;48.028;2023-04-07T00:55:27;14.95;;;5.47;;
75470;SDS011;64051;46.320;48.028;2023-04-07T00:57:52;18.15;;;5.45;;
75470;SDS011;64051;46.320;48.028;2023-04-07T01:00:18;16.15;;;5.57;;
75470;SDS011;64051;46.320;48.028;2023-04-07T01:02:53;12.55;;;5.28;;
75470;SDS011;64051;46.320;48.028;2023-04-07T01:05:27;14.85;;;5.35;;
75470;SDS011;64051;46.320;48.028;2023-04-07T01:08:07;16.52;;;5.13;;
75470;SDS011;64051;46.320;48.028;2023-04-07T01:10:49;14.38;;;5.45;;
75470;SDS011;64051;46.320;48.028;2023-04-07T01:13:22;12.55;;;5.30;;
75470;SDS011;64051;46.320;48.028;2023-04-07T01:16:09;11.02;;;5.65;;
75470;SDS011;64051;46.320;48.028;2023-04-07T01:18:42;17.30;;;6.10;;
75470;SDS011;64051;46.320;48.028;2023-04-07T01:21:13;20.92;;;7.15;;
75470;SDS011;64051;46.320;48.028;2023-04-07T01:28:55;17.83;;;6.22;;
75470;SDS011;64051;46.320;48.028;2023-04-07T01:31:28;20.40;;;6.22;;
75470;SDS011;64051;46.320;48.028;2023-04-07T01:33:56;17.33;;;5.65;;
75470;SDS011;64051;46.320;48.028;2023-04-07T01:36:25;16.50;;;5.32;;
75470;SDS011;64051;46.320;48.028;2023-04-07T01:38:52;15.07;;;6.03;;
75470;SDS011;64051;46.320;48.028;2023-04-07T01:41:19;16.83;;;6.85;;
75470;SDS011;64051;46.320;48.028;2023-04-07T01:43:47;15.18;;;5.82;;
75470;SDS011;64051;46.320;48.028;2023-04-07T01:46:14;16.75;;;6.28;;
75470;SDS011;64051;46.320;48.028;2023-04-07T01:48:40;15.77;;;5.63;;
75470;SDS011;64051;46.320;48.028;2023-04-07T01:51:07;17.02;;;6.00;;
75470;SDS011;64051;46.320;48.028;2023-04-07T01:53:36;18.70;;;6.25;;
75470;SDS011;64051;46.320;48.028;2023-04-07T01:56:03;17.67;;;5.88;;
75470;SDS011;64051;46.320;48.028;2023-04-07T01:58:32;18.98;;;6.03;;
75470;SDS011;64051;46.320;48.028;2023-04-07T02:00:58;21.33;;;6.70;;
75470;SDS011;64051;46.320;48.028;2023-04-07T02:03:30;19.35;;;6.25;;
75470;SDS011;64051;46.320;48.028;2023-04-07T02:06:11;18.58;;;6.72;;
75470;SDS011;64051;46.320;48.028;2023-04-07T02:08:44;19.17;;;6.75;;
75470;SDS011;64051;46.320;48.028;2023-04-07T02:11:13;16.05;;;7.22;;
75470;SDS011;64051;46.320;48.028;2023-04-07T02:13:43;15.75;;;6.82;;
75470;SDS011;64051;46.320;48.028;2023-04-07T02:16:12;13.27;;;6.30;;
75470;SDS011;64051;46.320;48.028;2023-04-07T02:18:40;14.48;;;6.55;;
75470;SDS011;64051;46.320;48.028;2023-04-07T02:21:07;15.20;;;6.28;;
75470;SDS011;64051;46.320;48.028;2023-04-07T02:23:34;19.67;;;6.60;;
75470;SDS011;64051;46.320;48.028;2023-04-07T02:26:00;15.43;;;7.20;;
75470;SDS011;64051;46.320;48.028;2023-04-07T02:28:26;19.15;;;8.27;;
75470;SDS011;64051;46.320;48.028;2023-04-07T02:30:52;21.77;;;8.40;;
75470;SDS011;64051;46.320;48.028;2023-04-07T02:33:18;16.10;;;6.75;;
75470;SDS011;64051;46.320;48.028;2023-04-07T02:35:44;17.48;;;7.18;;
75470;SDS011;64051;46.320;48.028;2023-04-07T02:38:10;16.15;;;7.15;;
75470;SDS011;64051;46.320;48.028;2023-04-07T02:40:36;19.13;;;6.78;;
75470;SDS011;64051;46.320;48.028;2023-04-07T02:43:02;13.98;;;6.63;;
75470;SDS011;64051;46.320;48.028;2023-04-07T02:45:29;16.33;;;6.47;;
75470;SDS011;64051;46.320;48.028;2023-04-07T02:47:56;14.20;;;5.10;;
75470;SDS011;64051;46.320;48.028;2023-04-07T02:50:24;11.07;;;4.93;;
75470;SDS011;64051;46.320;48.028;2023-04-07T02:52:50;14.95;;;4.70;;
75470;SDS011;64051;46.320;48.028;2023-04-07T02:55:16;13.00;;;3.95;;
75470;SDS011;64051;46.320;48.028;2023-04-07T02:57:43;9.93;;;3.53;;
75470;SDS011;64051;46.320;48.028;2023-04-07T03:00:24;15.35;;;4.40;;
75470;SDS011;64051;46.320;48.028;2023-04-07T03:03:19;16.08;;;5.68;;
75470;SDS011;64051;46.320;48.028;2023-04-07T03:05:58;17.60;;;4.32;;
75470;SDS011;64051;46.320;48.028;2023-04-07T03:08:24;13.82;;;4.63;;
75470;SDS011;64051;46.320;48.028;2023-04-07T03:10:52;19.70;;;5.90;;
75470;SDS011;64051;46.320;48.028;2023-04-07T03:13:24;38.92;;;13.63;;
75470;SDS011;64051;46.320;48.028;2023-04-07T03:15:50;49.45;;;16.27;;
75470;SDS011;64051;46.320;48.028;2023-04-07T03:18:17;47.22;;;15.98;;
75470;SDS011;64051;46.320;48.028;2023-04-07T03:20:44;27.85;;;9.52;;
75470;SDS011;64051;46.320;48.028;2023-04-07T03:23:12;42.35;;;13.13;;
75470;SDS011;64051;46.320;48.028;2023-04-07T03:25:38;48.97;;;14.48;;
75470;SDS011;64051;46.320;48.028;2023-04-07T03:28:05;63.22;;;18.73;;
75470;SDS011;64051;46.320;48.028;2023-04-07T03:30:36;77.90;;;24.08;;
75470;SDS011;64051;46.320;48.028;2023-04-07T03:33:02;104.38;;;30.48;;
75470;SDS011;64051;46.320;48.028;2023-04-07T03:35:30;105.90;;;29.88;;
75470;SDS011;64051;46.320;48.028;2023-04-07T03:37:56;148.13;;;43.10;;
75470;SDS011;64051;46.320;48.028;2023-04-07T03:40:21;107.97;;;32.33;;
75470;SDS011;64051;46.320;48.028;2023-04-07T03:42:48;49.45;;;16.02;;
75470;SDS011;64051;46.320;48.028;2023-04-07T03:45:15;26.23;;;7.47;;
75470;SDS011;64051;46.320;48.028;2023-04-07T03:47:50;15.60;;;4.25;;
75470;SDS011;64051;46.320;48.028;2023-04-07T03:50:17;8.05;;;4.07;;
75470;SDS011;64051;46.320;48.028;2023-04-07T03:52:57;18.88;;;4.88;;
75470;SDS011;64051;46.320;48.028;2023-04-07T03:55:25;27.02;;;7.88;;
75470;SDS011;64051;46.320;48.028;2023-04-07T03:57:56;13.18;;;5.57;;
75470;SDS011;64051;46.320;48.028;2023-04-07T04:00:26;18.75;;;5.53;;
75470;SDS011;64051;46.320;48.028;2023-04-07T04:03:03;17.13;;;5.03;;
75470;SDS011;64051;46.320;48.028;2023-04-07T04:05:35;13.82;;;4.88;;
75470;SDS011;64051;46.320;48.028;2023-04-07T04:08:01;12.23;;;5.13;;
75470;SDS011;64051;46.320;48.028;2023-04-07T04:10:29;65.72;;;20.77;;
75470;SDS011;64051;46.320;48.028;2023-04-07T04:12:56;55.67;;;17.60;;
75470;SDS011;64051;46.320;48.028;2023-04-07T04:15:25;41.75;;;14.00;;
75470;SDS011;64051;46.320;48.028;2023-04-07T04:17:57;29.55;;;10.73;;
75470;SDS011;64051;46.320;48.028;2023-04-07T04:20:24;23.05;;;9.95;;
75470;SDS011;64051;46.320;48.028;2023-04-07T04:22:50;21.75;;;9.48;;
75470;SDS011;64051;46.320;48.028;2023-04-07T04:25:17;23.27;;;9.02;;
75470;SDS011;64051;46.320;48.028;2023-04-07T04:27:49;20.48;;;10.18;;
75470;SDS011;64051;46.320;48.028;2023-04-07T04:30:25;23.58;;;12.38;;
75470;SDS011;64051;46.320;48.028;2023-04-07T04:33:01;31.27;;;16.20;;
75470;SDS011;64051;46.320;48.028;2023-04-07T04:35:36;32.00;;;15.90;;
75470;SDS011;64051;46.320;48.028;2023-04-07T04:38:22;38.63;;;20.42;;
75470;SDS011;64051;46.320;48.028;2023-04-07T04:41:07;56.50;;;24.42;;
75470;SDS011;64051;46.320;48.028;2023-04-07T04:43:33;33.72;;;17.70;;
75470;SDS011;64051;46.320;48.028;2023-04-07T04:46:15;30.13;;;17.85;;
75470;SDS011;64051;46.320;48.028;2023-04-07T04:48:42;32.22;;;20.80;;
75470;SDS011;64051;46.320;48.028;2023-04-07T04:54:51;43.35;;;29.85;;
75470;SDS011;64051;46.320;48.028;2023-04-07T04:57:42;48.67;;;25.92;;
75470;SDS011;64051;46.320;48.028;2023-04-07T05:00:20;33.92;;;17.23;;
75470;SDS011;64051;46.320;48.028;2023-04-07T05:02:51;19.67;;;10.43;;
75470;SDS011;64051;46.320;48.028;2023-04-07T05:05:21;16.67;;;7.57;;
75470;SDS011;64051;46.320;48.028;2023-04-07T05:07:51;20.95;;;7.30;;
75470;SDS011;64051;46.320;48.028;2023-04-07T05:10:17;20.80;;;6.47;;
75470;SDS011;64051;46.320;48.028;2023-04-07T05:12:47;13.15;;;5.80;;
75470;SDS011;64051;46.320;48.028;2023-04-07T05:15:13;20.10;;;6.05;;
75470;SDS011;64051;46.320;48.028;2023-04-07T05:18:02;14.40;;;6.70;;
75470;SDS011;64051;46.320;48.028;2023-04-07T05:20:30;13.52;;;6.40;;
75470;SDS011;64051;46.320;48.028;2023-04-07T05:22:56;12.07;;;6.20;;
75470;SDS011;64051;46.320;48.028;2023-04-07T05:25:29;14.93;;;6.25;;
75470;SDS011;64051;46.320;48.028;2023-04-07T05:27:59;14.90;;;6.07;;
75470;SDS011;64051;46.320;48.028;2023-04-07T05:30:27;18.70;;;6.80;;
75470;SDS011;64051;46.320;48.028;2023-04-07T05:32:56;12.68;;;5.38;;
75470;SDS011;64051;46.320;48.028;2023-04-07T05:35:45;14.80;;;5.88;;
75470;SDS011;64051;46.320;48.028;2023-04-07T05:38:12;13.48;;;5.43;;
75470;SDS011;64051;46.320;48.028;2023-04-07T05:48:35;11.23;;;5.10;;
75470;SDS011;64051;46.320;48.028;2023-04-07T05:51:04;17.02;;;5.18;;
75470;SDS011;64051;46.320;48.028;2023-04-07T05:53:55;12.80;;;5.93;;
75470;SDS011;64051;46.320;48.028;2023-04-07T05:56:26;16.90;;;6.97;;
75470;SDS011;64051;46.320;48.028;2023-04-07T05:58:55;15.90;;;8.75;;
75470;SDS011;64051;46.320;48.028;2023-04-07T06:01:55;19.77;;;11.18;;
75470;SDS011;64051;46.320;48.028;2023-04-07T06:04:46;27.08;;;15.57;;
75470;SDS011;64051;46.320;48.028;2023-04-07T06:07:15;25.90;;;12.75;;
75470;SDS011;64051;46.320;48.028;2023-04-07T06:10:04;21.67;;;9.70;;
75470;SDS011;64051;46.320;48.028;2023-04-07T06:22:21;21.02;;;7.60;;
75470;SDS011;64051;46.320;48.028;2023-04-07T06:25:09;19.98;;;9.80;;
75470;SDS011;64051;46.320;48.028;2023-04-07T06:27:35;17.67;;;9.07;;
75470;SDS011;64051;46.320;48.028;2023-04-07T06:30:01;17.20;;;10.57;;
75470;SDS011;64051;46.320;48.028;2023-04-07T06:32:33;20.35;;;12.02;;
75470;SDS011;64051;46.320;48.028;2023-04-07T06:35:33;18.15;;;9.57;;
75470;SDS011;64051;46.320;48.028;2023-04-07T06:38:03;16.08;;;9.02;;
75470;SDS011;64051;46.320;48.028;2023-04-07T06:40:30;17.45;;;8.23;;
75470;SDS011;64051;46.320;48.028;2023-04-07T06:42:56;17.88;;;6.82;;
75470;SDS011;64051;46.320;48.028;2023-04-07T06:45:39;14.95;;;5.90;;
75470;SDS011;64051;46.320;48.028;2023-04-07T06:48:06;20.83;;;5.85;;
75470;SDS011;64051;46.320;48.028;2023-04-07T06:50:35;17.48;;;5.18;;
75470;SDS011;64051;46.320;48.028;2023-04-07T06:53:07;16.42;;;4.25;;
75470;SDS011;64051;46.320;48.028;2023-04-07T06:55:38;10.60;;;4.00;;
75470;SDS011;64051;46.320;48.028;2023-04-07T06:58:07;13.32;;;4.63;;
75470;SDS011;64051;46.320;48.028;2023-04-07T07:00:38;12.63;;;5.32;;
75470;SDS011;64051;46.320;48.028;2023-04-07T07:03:04;14.02;;;4.85;;
75470;SDS011;64051;46.320;48.028;2023-04-07T07:05:29;13.98;;;4.65;;
75470;SDS011;64051;46.320;48.028;2023-04-07T07:07:58;16.92;;;4.60;;
75470;SDS011;64051;46.320;48.028;2023-04-07T07:10:27;14.60;;;4.30;;
75470;SDS011;64051;46.320;48.028;2023-04-07T07:12:53;11.90;;;4.15;;
75470;SDS011;64051;46.320;48.028;2023-04-07T07:15:19;15.00;;;3.92;;
75470;SDS011;64051;46.320;48.028;2023-04-07T07:17:45;12.55;;;3.33;;
75470;SDS011;64051;46.320;48.028;2023-04-07T07:20:11;12.32;;;3.42;;
75470;SDS011;64051;46.320;48.028;2023-04-07T07:22:37;12.43;;;2.95;;
75470;SDS011;64051;46.320;48.028;2023-04-07T07:25:20;12.73;;;3.05;;
75470;SDS011;64051;46.320;48.028;2023-04-07T07:28:08;15.10;;;3.15;;
75470;SDS011;64051;46.320;48.028;2023-04-07T07:30:46;7.82;;;2.72;;
75470;SDS011;64051;46.320;48.028;2023-04-07T07:33:15;15.27;;;3.38;;
75470;SDS011;64051;46.320;48.028;2023-04-07T07:35:46;12.82;;;3.10;;
75470;SDS011;64051;46.320;48.028;2023-04-07T07:38:12;13.50;;;3.28;;
75470;SDS011;64051;46.320;48.028;2023-04-07T07:40:38;12.05;;;3.28;;
75470;SDS011;64051;46.320;48.028;2023-04-07T07:43:03;12.18;;;2.85;;
75470;SDS011;64051;46.320;48.028;2023-04-07T07:48:02;9.90;;;3.30;;
75470;SDS011;64051;46.320;48.028;2023-04-07T07:50:28;14.95;;;3.50;;
75470;SDS011;64051;46.320;48.028;2023-04-07T07:52:55;14.85;;;3.20;;
75470;SDS011;64051;46.320;48.028;2023-04-07T07:55:23;17.80;;;3.35;;
75470;SDS011;64051;46.320;48.028;2023-04-07T07:58:01;10.90;;;2.67;;
75470;SDS011;64051;46.320;48.028;2023-04-07T08:00:32;12.45;;;3.05;;
75470;SDS011;64051;46.320;48.028;2023-04-07T08:02:58;8.90;;;2.90;;
75470;SDS011;64051;46.320;48.028;2023-04-07T08:05:24;11.43;;;3.13;;
75470;SDS011;64051;46.320;48.028;2023-04-07T08:07:53;7.78;;;2.78;;
75470;SDS011;64051;46.320;48.028;2023-04-07T08:10:20;9.68;;;2.92;;
75470;SDS011;64051;46.320;48.028;2023-04-07T08:12:46;11.95;;;3.00;;
75470;SDS011;64051;46.320;48.028;2023-04-07T08:15:12;10.00;;;2.83;;
75470;SDS011;64051;46.320;48.028;2023-04-07T08:17:38;9.60;;;2.88;;
75470;SDS011;64051;46.320;48.028;2023-04-07T08:20:04;9.90;;;2.70;;
75470;SDS011;64051;46.320;48.028;2023-04-07T08:22:33;10.10;;;2.60;;
75470;SDS011;64051;46.320;48.028;2023-04-07T08:25:02;10.48;;;2.75;;
75470;SDS011;64051;46.320;48.028;2023-04-07T08:27:30;13.98;;;2.83;;
75470;SDS011;64051;46.320;48.028;2023-04-07T08:29:59;10.52;;;2.83;;
75470;SDS011;64051;46.320;48.028;2023-04-07T08:32:38;9.73;;;2.90;;
75470;SDS011;64051;46.320;48.028;2023-04-07T08:35:06;11.45;;;3.33;;
75470;SDS011;64051;46.320;48.028;2023-04-07T08:37:33;12.68;;;3.40;;
75470;SDS011;64051;46.320;48.028;2023-04-07T08:40:00;12.07;;;2.60;;
75470;SDS011;64051;46.320;48.028;2023-04-07T08:42:30;8.75;;;3.22;;
75470;SDS011;64051;46.320;48.028;2023-04-07T08:45:04;9.30;;;2.97;;
75470;SDS011;64051;46.320;48.028;2023-04-07T08:47:39;14.35;;;4.53;;
75470;SDS011;64051;46.320;48.028;2023-04-07T08:50:09;14.25;;;4.53;;
75470;SDS011;64051;46.320;48.028;2023-04-07T08:52:50;8.05;;;3.10;;
75470;SDS011;64051;46.320;48.028;2023-04-07T08:55:22;14.88;;;3.10;;
75470;SDS011;64051;46.320;48.028;2023-04-07T08:57:48;12.48;;;2.95;;
75470;SDS011;64051;46.320;48.028;2023-04-07T09:00:15;9.07;;;3.03;;
75470;SDS011;64051;46.320;48.028;2023-04-07T09:02:42;16.00;;;3.47;;
75470;SDS011;64051;46.320;48.028;2023-04-07T09:05:16;11.23;;;3.10;;
75470;SDS011;64051;46.320;48.028;2023-04-07T09:07:42;10.35;;;2.92;;
75470;SDS011;64051;46.320;48.028;2023-04-07T09:10:08;10.43;;;3.13;;
75470;SDS011;64051;46.320;48.028;2023-04-07T09:12:34;13.00;;;3.30;;
75470;SDS011;64051;46.320;48.028;2023-04-07T09:15:00;9.07;;;2.78;;
75470;SDS011;64051;46.320;48.028;2023-04-07T09:17:29;12.32;;;4.80;;
75470;SDS011;64051;46.320;48.028;2023-04-07T09:19:55;7.78;;;2.80;;
75470;SDS011;64051;46.320;48.028;2023-04-07T09:28:02;12.60;;;3.05;;
75470;SDS011;64051;46.320;48.028;2023-04-07T09:30:32;11.10;;;3.53;;
75470;SDS011;64051;46.320;48.028;2023-04-07T09:32:58;11.85;;;3.17;;
75470;SDS011;64051;46.320;48.028;2023-04-07T09:35:49;7.93;;;3.10;;
75470;SDS011;64051;46.320;48.028;2023-04-07T09:38:16;9.80;;;3.75;;
75470;SDS011;64051;46.320;48.028;2023-04-07T09:40:42;12.73;;;5.03;;
75470;SDS011;64051;46.320;48.028;2023-04-07T09:43:13;15.02;;;4.30;;
75470;SDS011;64051;46.320;48.028;2023-04-07T09:45:44;12.80;;;5.40;;
75470;SDS011;64051;46.320;48.028;2023-04-07T09:48:20;11.50;;;4.10;;
75470;SDS011;64051;46.320;48.028;2023-04-07T09:50:49;8.68;;;3.47;;
75470;SDS011;64051;46.320;48.028;2023-04-07T09:53:30;9.07;;;3.83;;
75470;SDS011;64051;46.320;48.028;2023-04-07T09:56:16;8.32;;;4.13;;
75470;SDS011;64051;46.320;48.028;2023-04-07T09:58:53;11.48;;;3.17;;
75470;SDS011;64051;46.320;48.028;2023-04-07T10:01:20;12.00;;;3.53;;
75470;SDS011;64051;46.320;48.028;2023-04-07T10:03:47;9.43;;;3.80;;
75470;SDS011;64051;46.320;48.028;2023-04-07T10:06:18;14.32;;;4.40;;
75470;SDS011;64051;46.320;48.028;2023-04-07T10:08:44;10.40;;;4.00;;
75470;SDS011;64051;46.320;48.028;2023-04-07T10:11:17;12.02;;;4.20;;
75470;SDS011;64051;46.320;48.028;2023-04-07T10:13:47;10.43;;;5.40;;
75470;SDS011;64051;46.320;48.028;2023-04-07T10:16:13;14.70;;;4.00;;
75470;SDS011;64051;46.320;48.028;2023-04-07T10:18:40;10.32;;;3.65;;
75470;SDS011;64051;46.320;48.028;2023-04-07T10:21:13;8.98;;;3.58;;
75470;SDS011;64051;46.320;48.028;2023-04-07T10:23:53;9.27;;;4.05;;
75470;SDS011;64051;46.320;48.028;2023-04-07T10:27:15;11.30;;;3.85;;
75470;SDS011;64051;46.320;48.028;2023-04-07T10:30:02;15.18;;;4.25;;
75470;SDS011;64051;46.320;48.028;2023-04-07T10:32:31;16.48;;;4.25;;
75470;SDS011;64051;46.320;48.028;2023-04-07T10:35:10;11.75;;;4.43;;
75470;SDS011;64051;46.320;48.028;2023-04-07T10:42:44;14.05;;;3.63;;
75470;SDS011;64051;46.320;48.028;2023-04-07T10:45:14;10.30;;;3.60;;
75470;SDS011;64051;46.320;48.028;2023-04-07T10:48:09;13.38;;;3.40;;
75470;SDS011;64051;46.320;48.028;2023-04-07T10:50:37;12.32;;;3.60;;
75470;SDS011;64051;46.320;48.028;2023-04-07T10:53:06;11.18;;;3.60;;
75470;SDS011;64051;46.320;48.028;2023-04-07T10:55:42;19.02;;;4.18;;
75470;SDS011;64051;46.320;48.028;2023-04-07T10:58:18;10.10;;;3.55;;
75470;SDS011;64051;46.320;48.028;2023-04-07T11:03:28;12.18;;;3.58;;
75470;SDS011;64051;46.320;48.028;2023-04-07T11:06:10;15.07;;;3.47;;
75470;SDS011;64051;46.320;48.028;2023-04-07T11:08:38;10.20;;;3.40;;
75470;SDS011;64051;46.320;48.028;2023-04-07T11:11:06;13.40;;;4.00;;
75470;SDS011;64051;46.320;48.028;2023-04-07T11:13:41;8.57;;;3.60;;
75470;SDS011;64051;46.320;48.028;2023-04-07T11:16:18;9.23;;;3.40;;
75470;SDS011;64051;46.320;48.028;2023-04-07T11:19:00;16.02;;;3.80;;
75470;SDS011;64051;46.320;48.028;2023-04-07T11:21:28;10.18;;;3.47;;
75470;SDS011;64051;46.320;48.028;2023-04-07T11:24:02;10.57;;;3.75;;
75470;SDS011;64051;46.320;48.028;2023-04-07T11:26:32;13.50;;;3.72;;
75470;SDS011;64051;46.320;48.028;2023-04-07T11:29:03;13.88;;;3.83;;
75470;SDS011;64051;46.320;48.028;2023-04-07T11:34:06;14.07;;;4.30;;
75470;SDS011;64051;46.320;48.028;2023-04-07T11:36:34;13.77;;;4.30;;
75470;SDS011;64051;46.320;48.028;2023-04-07T11:39:02;14.57;;;4.00;;
75470;SDS011;64051;46.320;48.028;2023-04-07T11:41:29;9.80;;;3.92;;
75470;SDS011;64051;46.320;48.028;2023-04-07T11:44:07;13.82;;;4.20;;
75470;SDS011;64051;46.320;48.028;2023-04-07T11:46:36;12.60;;;4.30;;
75470;SDS011;64051;46.320;48.028;2023-04-07T11:49:12;11.35;;;4.68;;
75470;SDS011;64051;46.320;48.028;2023-04-07T11:51:39;13.48;;;4.43;;
75470;SDS011;64051;46.320;48.028;2023-04-07T11:54:13;14.38;;;4.68;;
75470;SDS011;64051;46.320;48.028;2023-04-07T11:56:45;14.40;;;5.05;;
75470;SDS011;64051;46.320;48.028;2023-04-07T11:59:21;12.05;;;5.18;;
75470;SDS011;64051;46.320;48.028;2023-04-07T12:01:49;14.75;;;5.32;;
75470;SDS011;64051;46.320;48.028;2023-04-07T12:04:16;13.32;;;4.40;;
75470;SDS011;64051;46.320;48.028;2023-04-07T12:06:43;12.80;;;4.45;;
75470;SDS011;64051;46.320;48.028;2023-04-07T12:09:30;13.85;;;4.68;;
75470;SDS011;64051;46.320;48.028;2023-04-07T12:12:03;14.27;;;4.55;;
75470;SDS011;64051;46.320;48.028;2023-04-07T12:14:32;11.38;;;4.32;;
75470;SDS011;64051;46.320;48.028;2023-04-07T12:17:01;10.23;;;4.30;;
75470;SDS011;64051;46.320;48.028;2023-04-07T12:19:30;18.95;;;3.88;;
75470;SDS011;64051;46.320;48.028;2023-04-07T12:22:03;16.80;;;5.13;;
75470;SDS011;64051;46.320;48.028;2023-04-07T12:24:30;16.83;;;5.28;;
75470;SDS011;64051;46.320;48.028;2023-04-07T12:27:02;9.55;;;4.25;;
75470;SDS011;64051;46.320;48.028;2023-04-07T12:29:28;19.27;;;4.72;;
75470;SDS011;64051;46.320;48.028;2023-04-07T12:31:55;11.05;;;4.15;;
75470;SDS011;64051;46.320;48.028;2023-04-07T12:36:53;11.10;;;4.32;;
75470;SDS011;64051;46.320;48.028;2023-04-07T12:39:19;16.58;;;4.90;;
75470;SDS011;64051;46.320;48.028;2023-04-07T12:41:46;13.70;;;4.22;;
75470;SDS011;64051;46.320;48.028;2023-04-07T12:44:16;19.75;;;5.43;;
75470;SDS011;64051;46.320;48.028;2023-04-07T12:46:44;18.77;;;4.93;;
75470;SDS011;64051;46.320;48.028;2023-04-07T12:49:10;13.45;;;4.65;;
75470;SDS011;64051;46.320;48.028;2023-04-07T12:51:38;18.33;;;5.22;;
75470;SDS011;64051;46.320;48.028;2023-04-07T12:54:05;16.00;;;5.05;;
75470;SDS011;64051;46.320;48.028;2023-04-07T12:56:31;17.38;;;4.93;;
75470;SDS011;64051;46.320;48.028;2023-04-07T12:58:57;12.10;;;5.18;;
75470;SDS011;64051;46.320;48.028;2023-04-07T13:01:29;16.73;;;5.35;;
75470;SDS011;64051;46.320;48.028;2023-04-07T13:04:02;15.20;;;5.45;;
75470;SDS011;64051;46.320;48.028;2023-04-07T13:06:28;15.68;;;5.60;;
75470;SDS011;64051;46.320;48.028;2023-04-07T13:09:00;17.08;;;4.93;;
75470;SDS011;64051;46.320;48.028;2023-04-07T13:11:26;12.90;;;4.68;;
75470;SDS011;64051;46.320;48.028;2023-04-07T13:13:52;13.35;;;4.70;;
75470;SDS011;64051;46.320;48.028;2023-04-07T13:16:18;12.55;;;5.18;;
75470;SDS011;64051;46.320;48.028;2023-04-07T13:18:44;22.25;;;6.35;;
75470;SDS011;64051;46.320;48.028;2023-04-07T13:21:09;16.95;;;5.82;;
75470;SDS011;64051;46.320;48.028;2023-04-07T13:23:38;18.02;;;5.10;;
75470;SDS011;64051;46.320;48.028;2023-04-07T13:26:10;11.93;;;4.18;;
75470;SDS011;64051;46.320;48.028;2023-04-07T13:28:36;11.27;;;3.97;;
75470;SDS011;64051;46.320;48.028;2023-04-07T13:31:05;14.05;;;4.10;;
75470;SDS011;64051;46.320;48.028;2023-04-07T13:33:31;21.73;;;4.60;;
75470;SDS011;64051;46.320;48.028;2023-04-07T13:35:57;16.60;;;4.70;;
75470;SDS011;64051;46.320;48.028;2023-04-07T13:38:23;13.60;;;4.38;;
75470;SDS011;64051;46.320;48.028;2023-04-07T13:40:49;16.00;;;3.83;;
75470;SDS011;64051;46.320;48.028;2023-04-07T13:43:15;12.48;;;4.10;;
75470;SDS011;64051;46.320;48.028;2023-04-07T13:45:43;15.65;;;4.00;;
75470;SDS011;64051;46.320;48.028;2023-04-07T13:48:11;12.25;;;3.88;;
75470;SDS011;64051;46.320;48.028;2023-04-07T13:50:37;16.15;;;4.60;;
75470;SDS011;64051;46.320;48.028;2023-04-07T13:53:03;14.25;;;4.30;;
75470;SDS011;64051;46.320;48.028;2023-04-07T13:55:35;15.57;;;4.57;;
75470;SDS011;64051;46.320;48.028;2023-04-07T13:58:01;16.17;;;4.95;;
75470;SDS011;64051;46.320;48.028;2023-04-07T14:00:27;8.27;;;3.63;;
75470;SDS011;64051;46.320;48.028;2023-04-07T14:02:53;13.35;;;5.47;;
75470;SDS011;64051;46.320;48.028;2023-04-07T14:05:29;15.63;;;6.00;;
75470;SDS011;64051;46.320;48.028;2023-04-07T14:07:55;20.40;;;5.97;;
75470;SDS011;64051;46.320;48.028;2023-04-07T14:10:30;11.50;;;4.30;;
75470;SDS011;64051;46.320;48.028;2023-04-07T14:13:03;16.70;;;4.10;;
75470;SDS011;64051;46.320;48.028;2023-04-07T14:15:29;12.55;;;5.03;;
75470;SDS011;64051;46.320;48.028;2023-04-07T14:18:01;12.73;;;4.72;;
75470;SDS011;64051;46.320;48.028;2023-04-07T14:20:31;16.38;;;5.40;;
75470;SDS011;64051;46.320;48.028;2023-04-07T14:23:00;12.43;;;4.10;;
75470;SDS011;64051;46.320;48.028;2023-04-07T14:25:26;13.18;;;5.88;;
75470;SDS011;64051;46.320;48.028;2023-04-07T14:27:52;13.23;;;5.00;;
75470;SDS011;64051;46.320;48.028;2023-04-07T14:30:18;14.43;;;5.25;;
75470;SDS011;64051;46.320;48.028;2023-04-07T14:32:44;13.93;;;4.80;;
75470;SDS011;64051;46.320;48.028;2023-04-07T14:35:10;11.35;;;4.45;;
75470;SDS011;64051;46.320;48.028;2023-04-07T14:37:40;9.60;;;3.38;;
75470;SDS011;64051;46.320;48.028;2023-04-07T14:40:12;15.38;;;3.35;;
75470;SDS011;64051;46.320;48.028;2023-04-07T14:42:38;8.68;;;3.35;;
75470;SDS011;64051;46.320;48.028;2023-04-07T14:45:04;9.68;;;3.30;;
75470;SDS011;64051;46.320;48.028;2023-04-07T14:47:30;9.95;;;3.40;;
75470;SDS011;64051;46.320;48.028;2023-04-07T14:50:02;9.57;;;2.85;;
75470;SDS011;64051;46.320;48.028;2023-04-07T14:52:30;10.68;;;3.25;;
75470;SDS011;64051;46.320;48.028;2023-04-07T14:54:56;13.05;;;3.20;;
75470;SDS011;64051;46.320;48.028;2023-04-07T14:57:22;17.90;;;3.58;;
75470;SDS011;64051;46.320;48.028;2023-04-07T14:59:48;13.70;;;3.38;;
75470;SDS011;64051;46.320;48.028;2023-04-07T15:02:20;13.10;;;4.00;;
75470;SDS011;64051;46.320;48.028;2023-04-07T15:04:53;15.85;;;3.13;;
75470;SDS011;64051;46.320;48.028;2023-04-07T15:07:24;12.23;;;3.13;;
75470;SDS011;64051;46.320;48.028;2023-04-07T15:09:53;18.15;;;3.40;;
75470;SDS011;64051;46.320;48.028;2023-04-07T15:12:21;17.02;;;3.63;;
75470;SDS011;64051;46.320;48.028;2023-04-07T15:14:49;13.32;;;3.58;;
75470;SDS011;64051;46.320;48.028;2023-04-07T15:17:18;12.02;;;3.10;;
75470;SDS011;64051;46.320;48.028;2023-04-07T15:19:46;13.48;;;3.53;;
75470;SDS011;64051;46.320;48.028;2023-04-07T15:22:12;11.55;;;4.22;;
75470;SDS011;64051;46.320;48.028;2023-04-07T15:24:38;9.77;;;3.33;;
75470;SDS011;64051;46.320;48.028;2023-04-07T15:27:04;14.95;;;3.95;;